Time;durP1;ratioP1;P1;durP2;ratioP2;P2;SDS_P1;SDS_P2;PMS_P1;PMS_P2;Temp;Humidity;BMP_temperature;BMP_pressure;BME280_temperature;BME280_humidity;BME280_pressure;Samples;Min_cycle;Max_cycle;Signal;HPM_P1;HPM_P2
2023/06/17 00:01:57;;;;;;;10.53;7.27;;;;;;;14.30;81.25;100779.78;4989853;28;20212;-74
2023/06/17 00:04:23;;;;;;;10.80;7.47;;;;;;;14.30;81.02;100779.00;4991353;28;20196;-74
2023/06/17 00:06:51;;;;;;;8.37;7.37;;;;;;;14.29;80.80;100778.22;4989547;28;20216;-75
2023/06/17 00:09:17;;;;;;;10.70;7.23;;;;;;;14.30;81.29;100779.00;4990357;28;20323;-74
2023/06/17 00:11:43;;;;;;;10.30;7.40;;;;;;;14.30;81.14;100779.00;4990269;28;20205;-74
2023/06/17 00:14:10;;;;;;;7.63;6.73;;;;;;;14.28;81.04;100778.59;4992639;28;20211;-74
2023/06/17 00:16:43;;;;;;;7.53;6.83;;;;;;;14.28;81.18;100762.63;4990852;28;20912;-74
2023/06/17 00:19:13;;;;;;;8.10;7.13;;;;;;;14.28;80.78;100760.75;4991492;28;20733;-74
2023/06/17 00:21:39;;;;;;;7.93;7.13;;;;;;;14.27;80.85;100764.50;4989536;28;20203;-74
2023/06/17 00:24:07;;;;;;;8.43;6.73;;;;;;;14.25;81.06;100761.44;4990318;28;20204;-74
2023/06/17 00:26:34;;;;;;;7.17;6.47;;;;;;;14.23;80.66;100750.38;4991344;28;20208;-74
2023/06/17 00:29:00;;;;;;;8.43;7.00;;;;;;;14.23;80.85;100755.69;4988943;28;20224;-74
2023/06/17 00:31:27;;;;;;;9.77;7.70;;;;;;;14.21;81.08;100751.84;4988503;28;20229;-74
2023/06/17 00:33:54;;;;;;;8.20;7.13;;;;;;;14.21;81.10;100747.31;4991310;28;20216;-74
2023/06/17 00:36:21;;;;;;;7.43;6.60;;;;;;;14.21;80.93;100749.19;4988738;28;20215;-74
2023/06/17 00:38:47;;;;;;;10.67;7.10;;;;;;;14.20;80.68;100737.81;5008700;28;20235;-74
2023/06/17 00:41:15;;;;;;;7.57;6.87;;;;;;;14.22;81.20;100740.09;4990974;28;20228;-74
2023/06/17 00:43:42;;;;;;;9.87;7.70;;;;;;;14.21;81.04;100752.63;4990821;28;20334;-74
2023/06/17 00:46:09;;;;;;;9.37;7.20;;;;;;;14.21;80.83;100747.31;4991291;28;20197;-74
2023/06/17 00:48:36;;;;;;;8.20;7.00;;;;;;;14.22;81.08;100745.41;4986294;28;20228;-74
2023/06/17 00:51:03;;;;;;;8.27;7.27;;;;;;;14.22;80.84;100751.50;4990995;28;20228;-74
2023/06/17 00:53:30;;;;;;;8.27;7.43;;;;;;;14.24;81.03;100753.81;5007446;28;20777;-74
2023/06/17 00:55:58;;;;;;;8.40;7.60;;;;;;;14.23;81.23;100741.66;4986173;28;20227;-74
2023/06/17 00:58:26;;;;;;;8.40;7.17;;;;;;;14.22;80.93;100751.50;4990174;28;20982;-74
2023/06/17 01:00:52;;;;;;;8.97;7.53;;;;;;;14.23;81.05;100754.94;4989660;28;20746;-74
2023/06/17 01:03:19;;;;;;;8.10;7.30;;;;;;;14.23;80.98;100752.28;4993252;28;20216;-74
2023/06/17 01:05:47;;;;;;;8.70;7.67;;;;;;;14.22;80.77;100748.84;5006815;28;20204;-74
2023/06/17 01:08:20;;;;;;;10.33;7.60;;;;;;;14.22;80.77;100751.50;4990318;28;20246;-74
2023/06/17 01:10:54;;;;;;;10.63;7.40;;;;;;;14.22;80.98;100745.41;4987587;28;20259;-74
2023/06/17 01:13:22;;;;;;;9.13;7.70;;;;;;;14.22;81.04;100748.84;4989455;28;20209;-74
2023/06/17 01:15:51;;;;;;;8.33;7.53;;;;;;;14.22;81.20;100751.50;4986707;28;20219;-74
2023/06/17 01:18:19;;;;;;;9.33;7.43;;;;;;;14.21;80.96;100755.28;4990054;28;20228;-74
2023/06/17 01:20:51;;;;;;;8.37;7.53;;;;;;;14.22;80.85;100753.38;4989734;28;20200;-74
2023/06/17 01:23:21;;;;;;;9.63;7.30;;;;;;;14.21;80.80;100746.53;4988812;28;20213;-74
2023/06/17 01:25:49;;;;;;;9.53;7.90;;;;;;;14.20;81.12;100745.78;4990159;28;20208;-74
2023/06/17 01:28:17;;;;;;;8.20;7.43;;;;;;;14.20;81.09;100745.00;4991363;28;20752;-74
2023/06/17 01:30:44;;;;;;;8.03;7.23;;;;;;;14.19;81.02;100743.44;4990844;28;20217;-74
2023/06/17 01:33:13;;;;;;;9.17;8.10;;;;;;;14.18;81.14;100750.63;4990949;28;20209;-74
2023/06/17 01:35:41;;;;;;;8.70;7.80;;;;;;;14.16;80.95;100744.09;4988443;28;20210;-74
2023/06/17 01:38:12;;;;;;;9.07;8.07;;;;;;;14.14;81.01;100736.50;4990636;28;20236;-74
2023/06/17 01:40:43;;;;;;;10.00;7.63;;;;;;;14.14;81.00;100735.72;4987982;28;20224;-74
2023/06/17 01:43:13;;;;;;;10.73;8.00;;;;;;;14.12;81.20;100732.66;4990153;28;20211;-74
2023/06/17 01:45:41;;;;;;;8.60;7.77;;;;;;;14.08;81.12;100735.19;4988084;28;20866;-74
2023/06/17 01:48:08;;;;;;;8.40;7.30;;;;;;;14.06;81.32;100732.13;4990445;28;20248;-74
2023/06/17 01:50:35;;;;;;;8.00;7.20;;;;;;;14.04;81.38;100737.03;4990120;28;20323;-74
2023/06/17 01:53:02;;;;;;;8.57;7.77;;;;;;;14.02;80.90;100735.81;4988952;28;20210;-74
2023/06/17 01:55:30;;;;;;;13.87;8.33;;;;;;;13.99;80.90;100741.81;4986542;28;20237;-74
2023/06/17 01:57:57;;;;;;;8.37;7.40;;;;;;;13.96;81.10;100743.28;4989123;28;20607;-74
2023/06/17 02:00:26;;;;;;;10.27;7.60;;;;;;;13.92;80.99;100745.06;4993046;28;20250;-74
2023/06/17 02:02:52;;;;;;;7.83;7.13;;;;;;;13.91;81.15;100745.41;4992714;28;20212;-74
2023/06/17 02:05:20;;;;;;;8.70;7.80;;;;;;;13.87;80.94;100755.94;4991921;28;20265;-74
2023/06/17 02:07:47;;;;;;;8.10;7.30;;;;;;;13.83;81.05;100746.34;4990503;28;20235;-74
2023/06/17 02:10:14;;;;;;;8.67;7.07;;;;;;;13.79;80.69;100751.59;4989873;28;20234;-74
2023/06/17 02:12:41;;;;;;;7.97;7.17;;;;;;;13.74;81.23;100743.88;4991821;28;20224;-74
2023/06/17 02:15:09;;;;;;;9.17;8.27;;;;;;;13.70;81.00;100747.53;5007631;28;20216;-74
2023/06/17 02:17:37;;;;;;;8.80;8.00;;;;;;;13.66;80.98;100742.16;4989904;28;20387;-74
2023/06/17 02:20:05;;;;;;;8.90;8.03;;;;;;;13.62;81.14;100753.78;4987050;28;20296;-74
2023/06/17 02:22:32;;;;;;;9.13;8.17;;;;;;;13.57;81.07;100743.44;4991052;28;20207;-74
2023/06/17 02:25:00;;;;;;;9.03;8.17;;;;;;;13.52;81.01;100755.06;4990229;28;20218;-73
2023/06/17 02:27:26;;;;;;;8.97;8.07;;;;;;;13.46;80.97;100753.00;4990936;28;20696;-73
2023/06/17 02:29:53;;;;;;;8.60;7.70;;;;;;;13.41;81.09;100754.00;4993623;28;20292;-74
2023/06/17 02:32:19;;;;;;;10.00;7.10;;;;;;;13.37;81.07;100744.41;4992326;28;20280;-74
2023/06/17 02:34:47;;;;;;;8.40;7.60;;;;;;;13.33;81.14;100743.56;4990408;28;20222;-74
2023/06/17 02:37:14;;;;;;;8.87;8.07;;;;;;;13.28;81.42;100744.56;5011420;28;21659;-74
2023/06/17 02:39:41;;;;;;;8.43;7.63;;;;;;;13.23;81.42;100744.81;4994001;28;20769;-74
2023/06/17 02:42:09;;;;;;;9.53;8.57;;;;;;;13.19;81.27;100748.50;4987824;28;20211;-74
2023/06/17 02:44:36;;;;;;;9.23;8.27;;;;;;;13.17;81.29;100750.69;4989817;28;20211;-74
2023/06/17 02:47:03;;;;;;;8.37;7.57;;;;;;;13.14;81.40;100759.34;4989634;28;20206;-74
2023/06/17 02:49:30;;;;;;;8.93;8.10;;;;;;;13.11;81.57;100744.09;4990390;28;20714;-74
2023/06/17 02:51:58;;;;;;;9.80;8.80;;;;;;;13.10;81.77;100743.31;4990177;28;20807;-74
2023/06/17 02:54:25;;;;;;;9.07;8.17;;;;;;;13.08;82.00;100747.41;4992142;28;21006;-74
2023/06/17 02:56:51;;;;;;;10.73;9.33;;;;;;;13.07;81.71;100740.56;4987381;28;20209;-74
2023/06/17 02:59:19;;;;;;;10.47;9.33;;;;;;;13.06;81.84;100741.69;4988964;28;20867;-73
2023/06/17 03:01:47;;;;;;;12.53;9.60;;;;;;;13.05;82.07;100740.91;4987699;28;20305;-74
2023/06/17 03:04:14;;;;;;;10.53;9.13;;;;;;;13.05;82.26;100740.91;4991884;28;20211;-74
2023/06/17 03:06:41;;;;;;;10.47;9.47;;;;;;;13.07;82.11;100743.22;4991291;28;20209;-74
2023/06/17 03:09:11;;;;;;;10.67;9.67;;;;;;;13.10;82.40;100742.56;4987957;28;20967;-74
2023/06/17 03:11:39;;;;;;;10.77;9.33;;;;;;;13.10;82.55;100750.50;4989159;28;20307;-74
2023/06/17 03:14:07;;;;;;;9.93;9.03;;;;;;;13.11;82.67;100747.53;4988241;28;20207;-74
2023/06/17 03:16:38;;;;;;;10.13;8.63;;;;;;;13.14;82.59;100746.09;4986640;28;20209;-74
2023/06/17 03:19:04;;;;;;;10.67;9.53;;;;;;;13.16;82.51;100747.28;4991316;28;20689;-74
2023/06/17 03:21:38;;;;;;;10.03;9.03;;;;;;;13.18;82.60;100742.41;4990565;28;20208;-74
2023/06/17 03:24:05;;;;;;;11.77;9.97;;;;;;;13.21;82.61;100744.41;4991739;28;20688;-74
2023/06/17 03:26:35;;;;;;;11.53;9.07;;;;;;;13.24;82.89;100738.41;4988642;28;20214;-74
2023/06/17 03:29:03;;;;;;;10.63;9.23;;;;;;;13.27;82.58;100735.09;4990961;28;20252;-74
2023/06/17 03:31:29;;;;;;;11.77;9.83;;;;;;;13.31;82.67;100738.56;4990055;28;20227;-74
2023/06/17 03:33:56;;;;;;;10.43;9.37;;;;;;;13.35;82.53;100734.16;4989717;28;20207;-74
2023/06/17 03:36:24;;;;;;;10.53;9.37;;;;;;;13.37;82.65;100736.47;4989265;28;20709;-74
2023/06/17 03:38:52;;;;;;;9.77;8.77;;;;;;;13.40;82.57;100747.16;4988942;28;20228;-73
2023/06/17 03:41:18;;;;;;;10.87;9.77;;;;;;;13.43;82.56;100743.84;4988651;28;20713;-73
2023/06/17 03:43:46;;;;;;;10.00;9.00;;;;;;;13.44;82.44;100750.69;4986882;28;20231;-73
2023/06/17 03:46:12;;;;;;;9.97;8.97;;;;;;;13.47;82.45;100749.22;4990452;28;20219;-73
2023/06/17 03:48:39;;;;;;;9.97;9.07;;;;;;;13.50;82.35;100740.59;4988126;28;21233;-74
2023/06/17 03:51:06;;;;;;;9.60;8.70;;;;;;;13.52;82.46;100743.69;4988423;28;20246;-73
2023/06/17 03:53:33;;;;;;;10.50;8.67;;;;;;;13.54;82.65;100744.88;4986946;28;20261;-74
2023/06/17 03:56:00;;;;;;;9.77;8.70;;;;;;;13.57;82.49;100738.13;5006593;28;20204;-73
2023/06/17 03:58:28;;;;;;;10.97;8.97;;;;;;;13.60;82.43;100734.78;4986262;28;20368;-74
2023/06/17 04:00:56;;;;;;;10.40;9.30;;;;;;;13.63;82.59;100747.38;4987096;28;20207;-74
2023/06/17 04:03:24;;;;;;;9.27;8.20;;;;;;;13.66;82.80;100744.78;4988200;28;20952;-74
2023/06/17 04:05:51;;;;;;;9.43;8.53;;;;;;;13.68;82.40;100742.59;4987713;28;20238;-74
2023/06/17 04:08:18;;;;;;;10.13;9.03;;;;;;;13.70;82.37;100748.31;4984231;28;20327;-74
2023/06/17 04:10:47;;;;;;;8.93;8.10;;;;;;;13.72;82.33;100748.75;4988863;28;20658;-74
2023/06/17 04:13:13;;;;;;;10.30;8.33;;;;;;;13.75;81.94;100748.06;4989124;28;20854;-74
2023/06/17 04:15:40;;;;;;;9.50;8.50;;;;;;;13.77;82.32;100753.78;4988608;28;20208;-74
2023/06/17 04:18:08;;;;;;;8.97;8.07;;;;;;;13.81;82.09;100744.03;4986856;28;20237;-74
2023/06/17 04:20:34;;;;;;;9.80;8.80;;;;;;;13.84;82.30;100750.53;4994581;28;20792;-74
2023/06/17 04:23:01;;;;;;;8.80;7.90;;;;;;;13.84;82.16;100748.69;4986644;28;20205;-74
2023/06/17 04:25:32;;;;;;;9.77;8.70;;;;;;;13.87;82.04;100749.88;4987697;28;20201;-74
2023/06/17 04:28:01;;;;;;;10.57;8.07;;;;;;;13.87;82.33;100747.97;4989508;28;20709;-74
2023/06/17 04:30:32;;;;;;;8.20;7.40;;;;;;;13.92;82.21;100746.97;4988332;28;20306;-74
2023/06/17 04:33:00;;;;;;;10.73;7.87;;;;;;;13.93;82.03;100740.53;4987632;28;20235;-74
2023/06/17 04:35:29;;;;;;;10.50;8.43;;;;;;;13.95;81.72;100749.69;4989172;28;20358;-74
2023/06/17 04:37:56;;;;;;;9.73;8.43;;;;;;;14.00;82.15;100748.66;4985501;28;20234;-74
2023/06/17 04:40:24;;;;;;;11.33;8.63;;;;;;;14.02;81.92;100749.84;4989294;28;20673;-74
2023/06/17 04:42:52;;;;;;;8.70;7.90;;;;;;;14.06;82.17;100749.94;4988531;28;20259;-74
2023/06/17 04:45:19;;;;;;;9.43;8.20;;;;;;;14.08;82.06;100759.09;4991684;28;20214;-74
2023/06/17 04:47:49;;;;;;;9.20;8.13;;;;;;;14.11;82.06;100754.97;4987568;28;20719;-74
2023/06/17 04:50:16;;;;;;;9.00;7.80;;;;;;;14.14;81.80;100759.63;5007484;28;20205;-74
2023/06/17 04:52:47;;;;;;;8.93;8.03;;;;;;;14.17;82.20;100749.06;4987020;28;20223;-74
2023/06/17 04:55:14;;;;;;;9.23;8.37;;;;;;;14.21;81.72;100754.50;4987578;28;20301;-74
2023/06/17 04:57:42;;;;;;;7.77;7.07;;;;;;;14.24;81.78;100746.59;4990495;28;20237;-74
2023/06/17 05:00:11;;;;;;;8.87;8.03;;;;;;;14.27;82.05;100751.25;4986656;28;20216;-74
2023/06/17 05:02:39;;;;;;;8.80;7.90;;;;;;;14.31;81.94;100749.44;4986860;28;20204;-74
2023/06/17 05:05:07;;;;;;;9.23;8.33;;;;;;;14.35;81.74;100760.13;4982521;28;20739;-74
2023/06/17 05:07:35;;;;;;;9.50;8.10;;;;;;;14.37;81.31;100763.22;4985892;28;20761;-74
2023/06/17 05:10:05;;;;;;;9.30;8.37;;;;;;;14.40;81.66;100755.34;4985865;28;20196;-74
2023/06/17 05:12:33;;;;;;;9.00;7.87;;;;;;;14.42;81.66;100760.28;4990607;28;20239;-74
2023/06/17 05:15:00;;;;;;;8.97;8.07;;;;;;;14.45;81.47;100764.91;4985248;28;20236;-74
2023/06/17 05:17:26;;;;;;;9.53;8.53;;;;;;;14.47;81.53;100760.81;4986484;28;20212;-74
2023/06/17 05:19:52;;;;;;;9.00;8.10;;;;;;;14.51;81.39;100752.91;5006745;28;21765;-74
2023/06/17 05:22:19;;;;;;;8.90;8.07;;;;;;;14.55;80.97;100761.72;4988292;28;20193;-74
2023/06/17 05:24:45;;;;;;;8.40;7.60;;;;;;;14.56;80.97;100755.28;4986692;28;20205;-74
2023/06/17 05:27:14;;;;;;;9.07;8.10;;;;;;;14.60;81.17;100766.78;4987811;28;20232;-74
2023/06/17 05:29:41;;;;;;;8.37;7.43;;;;;;;14.64;81.16;100770.28;4987067;28;20218;-74
2023/06/17 05:32:09;;;;;;;8.87;7.60;;;;;;;14.67;81.04;100773.00;4986705;28;20227;-74
2023/06/17 05:34:35;;;;;;;10.03;7.97;;;;;;;14.72;81.02;100763.97;4986253;28;20645;-74
2023/06/17 05:37:02;;;;;;;8.57;7.70;;;;;;;14.76;81.06;100767.50;4986090;28;20207;-74
2023/06/17 05:39:28;;;;;;;8.50;7.67;;;;;;;14.79;80.48;100764.91;4985731;28;20233;-74
2023/06/17 05:41:55;;;;;;;8.13;7.33;;;;;;;14.82;80.41;100769.53;4989377;28;20212;-74
2023/06/17 05:44:22;;;;;;;9.50;8.13;;;;;;;14.85;80.89;100765.41;4988019;28;20232;-74
2023/06/17 05:46:50;;;;;;;8.90;8.03;;;;;;;14.87;80.71;100765.81;4985744;28;20266;-74
2023/06/17 05:49:17;;;;;;;9.53;8.50;;;;;;;14.90;80.26;100771.19;4986286;28;20225;-74
2023/06/17 05:51:43;;;;;;;8.27;7.57;;;;;;;14.91;80.15;100770.09;4989071;28;20240;-74
2023/06/17 05:54:10;;;;;;;9.63;7.73;;;;;;;14.93;80.08;100778.50;4987516;28;20229;-74
2023/06/17 05:56:36;;;;;;;8.53;7.63;;;;;;;14.95;80.11;100780.81;4986149;28;20303;-74
2023/06/17 05:59:03;;;;;;;10.27;8.57;;;;;;;14.96;80.23;100777.03;4985336;28;21599;-74
2023/06/17 06:01:38;;;;;;;9.77;8.77;;;;;;;14.99;80.54;100785.06;4983899;28;20209;-74
2023/06/17 06:04:05;;;;;;;9.50;8.50;;;;;;;15.02;80.29;100779.06;4987657;28;20231;-74
2023/06/17 06:06:31;;;;;;;9.13;8.27;;;;;;;15.06;80.14;100776.47;4985338;28;20364;-74
2023/06/17 06:08:58;;;;;;;11.27;8.90;;;;;;;15.08;80.50;100768.91;4985527;28;20691;-74
2023/06/17 06:11:25;;;;;;;11.57;8.80;;;;;;;15.12;80.12;100778.47;5001244;28;20320;-74
2023/06/17 06:13:52;;;;;;;9.63;8.47;;;;;;;15.16;79.96;100781.25;4983902;28;20737;-74
2023/06/17 06:16:19;;;;;;;10.23;9.23;;;;;;;15.21;80.04;100783.63;4986659;28;20781;-74
2023/06/17 06:18:47;;;;;;;9.30;8.40;;;;;;;15.27;79.85;100776.88;4979882;28;20224;-74
2023/06/17 06:21:13;;;;;;;10.27;9.20;;;;;;;15.33;80.19;100780.81;4985385;28;20563;-74
2023/06/17 06:23:40;;;;;;;10.37;9.40;;;;;;;15.39;79.70;100784.75;4984689;28;20943;-74
2023/06/17 06:26:07;;;;;;;9.60;8.70;;;;;;;15.46;79.87;100790.19;4982128;28;20220;-74
2023/06/17 06:28:34;;;;;;;9.60;8.70;;;;;;;15.52;79.99;100786.13;4984860;28;20706;-74
2023/06/17 06:31:00;;;;;;;9.60;8.70;;;;;;;15.59;79.50;100797.69;4984923;28;20206;-74
2023/06/17 06:33:29;;;;;;;9.70;8.80;;;;;;;15.66;79.33;100787.16;4984495;28;20229;-74
2023/06/17 06:35:57;;;;;;;9.87;8.83;;;;;;;15.76;79.56;100801.75;4981647;28;20223;-74
2023/06/17 06:38:26;;;;;;;10.40;9.20;;;;;;;15.84;79.25;100798.88;4984205;28;20905;-74
2023/06/17 06:40:52;;;;;;;9.90;8.97;;;;;;;15.97;79.11;100796.78;4981452;28;20210;-74
2023/06/17 06:43:20;;;;;;;11.67;8.57;;;;;;;16.05;78.84;100795.81;4984880;28;20326;-74
2023/06/17 06:45:49;;;;;;;9.67;8.67;;;;;;;16.17;78.28;100793.72;4978979;28;20201;-74
2023/06/17 06:48:16;;;;;;;9.50;8.60;;;;;;;16.27;78.22;100795.78;4984619;28;20274;-74
2023/06/17 06:50:42;;;;;;;8.90;8.03;;;;;;;16.39;78.22;100797.50;4985757;28;20270;-74
2023/06/17 06:53:10;;;;;;;9.83;8.70;;;;;;;16.49;77.59;100794.22;4987427;28;20232;-74
2023/06/17 06:55:37;;;;;;;9.60;8.60;;;;;;;16.61;77.99;100796.69;4986861;28;20212;-74
2023/06/17 06:58:04;;;;;;;10.23;8.17;;;;;;;16.73;77.43;100796.47;4984467;28;20252;-74
2023/06/17 07:00:31;;;;;;;8.30;7.50;;;;;;;16.83;76.91;100798.50;4984896;28;20559;-74
2023/06/17 07:02:58;;;;;;;8.40;7.57;;;;;;;16.94;76.01;100804.75;4987351;28;20776;-74
2023/06/17 07:05:25;;;;;;;8.83;7.17;;;;;;;17.04;75.65;100804.09;4984824;28;20829;-74
2023/06/17 07:07:58;;;;;;;7.90;7.07;;;;;;;17.12;75.14;100809.16;4983409;28;20236;-74
2023/06/17 07:10:26;;;;;;;7.97;6.80;;;;;;;17.21;74.10;100798.22;4985597;28;20209;-74
2023/06/17 07:12:53;;;;;;;8.10;7.30;;;;;;;17.30;74.43;100804.81;4984279;28;20225;-74
2023/06/17 07:15:19;;;;;;;8.23;7.33;;;;;;;17.39;74.09;100805.31;4984524;28;20295;-74
2023/06/17 07:17:49;;;;;;;8.20;7.33;;;;;;;17.48;74.09;100805.78;4984622;28;20232;-74
2023/06/17 07:20:16;;;;;;;7.67;6.97;;;;;;;17.54;72.93;100796.31;4985918;28;20288;-75
2023/06/17 07:22:44;;;;;;;8.00;7.20;;;;;;;17.61;72.39;100806.31;4983627;28;20321;-74
2023/06/17 07:25:11;;;;;;;8.37;7.57;;;;;;;17.66;71.76;100803.31;4982618;28;20212;-74
2023/06/17 07:27:39;;;;;;;8.90;7.40;;;;;;;17.71;72.55;100802.97;4983062;28;20575;-74
2023/06/17 07:30:07;;;;;;;8.43;7.50;;;;;;;17.76;72.06;100803.44;4980562;28;20204;-75
2023/06/17 07:32:34;;;;;;;10.60;8.10;;;;;;;17.82;72.45;100807.28;4981417;28;20228;-75
2023/06/17 07:35:01;;;;;;;8.20;7.40;;;;;;;17.87;72.33;100798.94;4984443;28;20216;-74
2023/06/17 07:37:28;;;;;;;7.70;7.00;;;;;;;17.94;71.91;100806.22;4983871;28;20204;-75
2023/06/17 07:39:57;;;;;;;8.20;7.47;;;;;;;17.98;71.13;100807.81;4982197;28;20232;-75
2023/06/17 07:42:23;;;;;;;8.43;7.63;;;;;;;18.01;70.70;100801.72;4986204;28;20209;-75
2023/06/17 07:44:51;;;;;;;9.03;8.07;;;;;;;18.07;70.50;100802.16;4981129;28;21279;-74
2023/06/17 07:47:18;;;;;;;9.33;8.40;;;;;;;18.08;70.38;100806.34;4983991;28;20212;-74
2023/06/17 07:49:45;;;;;;;9.53;8.50;;;;;;;18.11;70.71;100810.97;4984459;28;20567;-75
2023/06/17 07:52:11;;;;;;;10.20;8.77;;;;;;;18.13;70.05;100812.13;4983879;28;20613;-75
2023/06/17 07:54:37;;;;;;;8.43;7.63;;;;;;;18.15;70.10;100807.19;4982990;28;20212;-75
2023/06/17 07:57:05;;;;;;;8.97;8.17;;;;;;;18.19;70.28;100812.56;4982164;28;20211;-74
2023/06/17 07:59:32;;;;;;;8.27;7.37;;;;;;;18.17;69.65;100809.50;4984137;28;20228;-74
2023/06/17 08:01:59;;;;;;;9.03;8.13;;;;;;;18.17;69.84;100807.56;4983550;28;20201;-74
2023/06/17 08:04:26;;;;;;;9.43;8.00;;;;;;;18.18;69.70;100809.13;4984780;28;20205;-74
2023/06/17 08:06:52;;;;;;;7.97;7.17;;;;;;;18.20;69.95;100804.16;4983154;28;20204;-74
2023/06/17 08:09:19;;;;;;;9.03;8.00;;;;;;;18.24;69.95;100806.88;4984335;28;20232;-74
2023/06/17 08:11:47;;;;;;;9.00;8.10;;;;;;;18.27;70.57;100806.13;4984301;28;20244;-74
2023/06/17 08:14:14;;;;;;;9.57;8.53;;;;;;;18.29;69.67;100801.94;4984201;28;20228;-74
2023/06/17 08:16:40;;;;;;;9.23;8.30;;;;;;;18.33;69.79;100802.78;4983705;28;20790;-75
2023/06/17 08:19:08;;;;;;;8.40;7.53;;;;;;;18.38;69.37;100801.66;4982242;28;20252;-74
2023/06/17 08:21:36;;;;;;;8.73;7.83;;;;;;;18.41;68.58;100798.22;4982745;28;20224;-74
2023/06/17 08:24:16;;;;;;;7.73;6.90;;;;;;;18.51;69.38;100803.66;4980602;28;20948;-74
2023/06/17 08:26:43;;;;;;;8.07;7.33;;;;;;;18.61;69.89;100804.84;4982728;28;20240;-74
2023/06/17 08:29:10;;;;;;;7.80;6.97;;;;;;;18.66;68.10;100804.50;4979881;28;20409;-75
2023/06/17 08:31:36;;;;;;;8.27;7.33;;;;;;;18.75;67.43;100807.63;4981824;28;20216;-74
2023/06/17 08:34:03;;;;;;;8.90;7.20;;;;;;;18.83;66.77;100807.28;4982088;28;20575;-74
2023/06/17 08:36:31;;;;;;;8.57;7.00;;;;;;;18.93;67.79;100811.16;4980573;28;20204;-75
2023/06/17 08:38:57;;;;;;;8.17;7.37;;;;;;;19.02;67.56;100809.66;4979615;28;20280;-74
2023/06/17 08:41:24;;;;;;;6.77;6.17;;;;;;;19.14;67.03;100821.97;4980934;28;21167;-74
2023/06/17 08:43:53;;;;;;;6.80;6.10;;;;;;;19.21;66.25;100812.06;4980496;28;20216;-74
2023/06/17 08:46:22;;;;;;;7.23;6.53;;;;;;;19.38;68.63;100806.00;4980337;28;20527;-74
2023/06/17 08:48:50;;;;;;;7.83;6.70;;;;;;;19.50;66.64;100813.69;4980114;28;20651;-74
2023/06/17 08:51:17;;;;;;;7.20;6.50;;;;;;;19.60;65.74;100807.56;4977318;28;20212;-74
2023/06/17 08:53:45;;;;;;;7.47;6.77;;;;;;;19.72;66.65;100812.56;4978298;28;21117;-75
2023/06/17 08:56:13;;;;;;;6.37;5.87;;;;;;;19.85;66.44;100808.38;4978439;28;20215;-74
2023/06/17 08:58:39;;;;;;;7.80;6.80;;;;;;;19.98;67.00;100814.88;4978873;28;20335;-75
2023/06/17 09:01:07;;;;;;;7.90;7.10;;;;;;;20.07;63.14;100806.50;4979046;28;20793;-75
2023/06/17 09:03:36;;;;;;;7.70;7.00;;;;;;;20.14;64.85;100815.31;4979019;28;20201;-74
2023/06/17 09:06:03;;;;;;;7.20;6.50;;;;;;;20.23;64.39;100809.56;4978007;28;20219;-74
2023/06/17 09:08:30;;;;;;;7.53;6.83;;;;;;;20.34;63.80;100815.69;4978934;28;20239;-74
2023/06/17 09:11:05;;;;;;;7.60;6.67;;;;;;;20.48;63.91;100813.00;4977344;28;20211;-75
2023/06/17 09:13:32;;;;;;;7.40;6.70;;;;;;;20.59;63.49;100813.75;4978393;28;20865;-75
2023/06/17 09:16:00;;;;;;;7.17;6.47;;;;;;;20.67;61.23;100807.19;4973987;28;20220;-75
2023/06/17 09:18:26;;;;;;;7.37;6.60;;;;;;;20.73;61.80;100802.94;4976577;28;20932;-74
2023/06/17 09:20:55;;;;;;;10.10;6.70;;;;;;;20.70;60.77;100809.13;4979062;28;20211;-75
2023/06/17 09:23:22;;;;;;;9.50;6.40;;;;;;;20.81;62.25;100801.78;4973551;28;20208;-75
2023/06/17 09:25:48;;;;;;;7.33;6.47;;;;;;;20.84;64.92;100812.50;4981088;28;20204;-74
2023/06/17 09:28:17;;;;;;;7.00;6.30;;;;;;;20.90;61.38;100802.94;4980226;28;20228;-74
2023/06/17 09:30:44;;;;;;;7.05;6.45;;;;;;;21.05;61.18;100806.34;4978015;28;20208;-75
2023/06/17 09:33:21;;;;;;;7.22;6.22;;;;;;;21.22;60.40;100803.56;4977058;28;20224;-75
2023/06/17 09:35:48;;;;;;;7.63;6.57;;;;;;;21.39;60.61;100802.72;4978061;28;20225;-75
2023/06/17 09:38:17;;;;;;;7.63;6.10;;;;;;;21.49;59.18;100804.59;4978232;28;21245;-75
2023/06/17 09:40:43;;;;;;;7.13;6.53;;;;;;;21.54;60.89;100801.50;4973913;28;20548;-75
2023/06/17 09:43:12;;;;;;;7.32;6.30;;;;;;;21.60;58.79;100799.13;4975550;28;20201;-75
2023/06/17 09:45:40;;;;;;;6.07;5.53;;;;;;;21.63;59.22;100798.38;4977129;28;20217;-74
2023/06/17 09:48:09;;;;;;;5.30;4.80;;;;;;;21.71;59.05;100805.22;4977389;28;20239;-75
2023/06/17 09:50:37;;;;;;;8.45;5.70;;;;;;;21.71;57.54;100800.63;4978641;28;20565;-75
2023/06/17 09:53:05;;;;;;;5.32;4.82;;;;;;;21.84;58.17;100792.88;4977988;28;20243;-75
2023/06/17 09:55:32;;;;;;;5.40;4.75;;;;;;;21.89;59.91;100795.13;4976705;28;21232;-75
2023/06/17 09:58:01;;;;;;;4.80;4.30;;;;;;;21.97;56.87;100785.84;4977907;28;20220;-75
2023/06/17 10:00:29;;;;;;;5.25;4.75;;;;;;;22.03;60.94;100790.41;4976144;28;20272;-75
2023/06/17 10:02:56;;;;;;;4.95;4.50;;;;;;;22.20;58.47;100786.03;4974972;28;20204;-75
2023/06/17 10:05:23;;;;;;;5.47;4.78;;;;;;;22.29;56.27;100784.41;4977311;28;21480;-75
2023/06/17 10:07:53;;;;;;;6.07;4.75;;;;;;;22.38;57.45;100786.63;4976446;28;20354;-75
2023/06/17 10:10:22;;;;;;;4.78;4.28;;;;;;;22.29;56.90;100787.09;4972407;28;20224;-74
2023/06/17 10:12:53;;;;;;;5.82;4.47;;;;;;;22.31;56.61;100784.00;4973564;28;20699;-75
2023/06/17 10:15:22;;;;;;;4.38;3.97;;;;;;;22.30;54.61;100785.91;4974941;28;20220;-75
2023/06/17 10:17:50;;;;;;;5.40;4.38;;;;;;;22.30;57.48;100793.25;4975151;28;20699;-75
2023/06/17 10:20:21;;;;;;;5.05;4.60;;;;;;;22.21;54.26;100782.19;4975418;28;20212;-75
2023/06/17 10:22:50;;;;;;;4.93;4.50;;;;;;;22.22;55.25;100787.16;4980018;28;20575;-74
2023/06/17 10:25:16;;;;;;;4.60;4.20;;;;;;;22.26;58.65;100774.44;4978660;28;20201;-75
2023/06/17 10:27:43;;;;;;;6.22;4.43;;;;;;;22.34;56.05;100783.19;4978717;28;20335;-75
2023/06/17 10:30:26;;;;;;;5.20;4.70;;;;;;;22.38;55.97;100781.22;4980571;28;20205;-74
2023/06/17 10:32:55;;;;;;;5.47;4.95;;;;;;;22.38;55.38;100776.63;4980359;28;20209;-75
2023/06/17 10:35:24;;;;;;;5.93;4.68;;;;;;;22.37;56.36;100780.47;4977326;28;20675;-75
2023/06/17 10:37:51;;;;;;;5.35;4.82;;;;;;;22.25;54.89;100770.22;4979756;28;20345;-75
2023/06/17 10:40:25;;;;;;;5.75;4.75;;;;;;;22.32;55.59;100777.44;4977571;28;20202;-75
2023/06/17 10:42:58;;;;;;;5.72;5.22;;;;;;;22.28;56.90;100777.50;4980336;28;20207;-75
2023/06/17 10:45:25;;;;;;;6.47;5.10;;;;;;;22.22;54.49;100767.56;4981153;28;20205;-75
2023/06/17 10:47:52;;;;;;;6.43;5.25;;;;;;;22.33;60.82;100777.06;4995071;28;20258;-75
2023/06/17 10:50:22;;;;;;;5.97;5.13;;;;;;;22.37;56.79;100769.72;4993419;28;20492;-75
2023/06/17 10:52:56;;;;;;;5.47;4.97;;;;;;;22.40;57.11;100765.47;4998043;28;20208;-75
2023/06/17 10:55:22;;;;;;;16.08;7.47;;;;;;;22.37;57.22;100771.63;4995943;28;20208;-74
2023/06/17 10:57:50;;;;;;;19.13;8.52;;;;;;;22.46;55.95;100764.63;5004560;28;20232;-76
2023/06/17 11:00:18;;;;;;;5.70;5.07;;;;;;;22.51;56.65;100764.19;5002170;28;20272;-75
2023/06/17 11:02:44;;;;;;;6.43;5.85;;;;;;;22.48;56.20;100772.31;5003029;28;20203;-76
2023/06/17 11:05:11;;;;;;;6.03;5.43;;;;;;;22.41;58.46;100764.31;4999065;28;20275;-76
2023/06/17 11:07:39;;;;;;;6.70;4.85;;;;;;;22.37;54.97;100764.34;5002508;28;20232;-75
2023/06/17 11:10:06;;;;;;;6.53;5.53;;;;;;;22.48;54.44;100750.78;4992360;28;20212;-75
2023/06/17 11:12:34;;;;;;;5.68;4.88;;;;;;;22.49;54.57;100749.63;4992348;28;20250;-76
2023/06/17 11:15:03;;;;;;;5.40;4.90;;;;;;;22.60;54.06;100751.03;4983664;28;20275;-75
2023/06/17 11:17:29;;;;;;;5.88;5.22;;;;;;;22.61;53.66;100755.25;4986051;28;20769;-76
2023/06/17 11:19:56;;;;;;;6.22;5.68;;;;;;;22.51;53.53;100752.69;4985938;28;20258;-75
2023/06/17 11:22:26;;;;;;;6.07;5.47;;;;;;;22.42;55.57;100753.16;4984537;28;20283;-75
2023/06/17 11:24:57;;;;;;;6.63;5.47;;;;;;;22.24;55.55;100755.22;4984816;28;20197;-75
2023/06/17 11:27:24;;;;;;;6.40;5.75;;;;;;;22.01;55.00;100760.47;4987028;28;20970;-75